map of ZAG home
ZAG - Airport
Location
City:  Zagreb, Medimurje, Croatia
Name:Zagreb International Airport
Old (Alt.):Pleso Airport
ICAO:LDZA
IATA:ZAG

Details
Type:Airport (Aerodrome, Airfield)
Use:Public/Civil, International (customs port of entry)
Latitude:4544'35"N (45.742931)
Longitude:1604'08"E (16.068778)
Datum:WGS 1984
Elevation:353 ft (108 m)
Variation:4.02E (WMM2015 magnetic declination)
0.11 annual change
Runways:1
Longest:10669 × 148 ft (3252 × 45 m), paved

Time
Time Zone:UTC+1 (DST+2)
Local Time:

Weather
METAR:LDZA 221800Z VRB02KT 9999 FEW015 15/11 Q1020 TEMPO 23007KT
TAF:LDZA 221725Z 2218/2318 03005KT 9999 SCT020 TX20/2313Z TN09/2303Z PROB40
TEMPO 2218/2300 23006KT

Related Locations
Nearby:
Farthest:CHT: 11810 mi / 19007 km
Waitangi [Tuuta], CIT, NZ

Find:

   beyond  
but within

Other Information
Maps:
NOTAMs:
Links:
Sources:

  
  • flag of Croatia
  • flag of Medimurje
  • flag of Zagreb
  

Sectional Chart

Flight Planning
at skyvector.com

Satellite Image

Google Maps Satellite view

 

Copyright © 2004-2018 Karl L. Swartz. All rights reserved.
The Great Circle Mapper name and logo are trademarks of the Great Circle Mapper.
All other trademarks mentioned herein belong to their respective owners.
Please see credits for attibutions and further copyright information.

  Follow gcmap on Facebook Follow gcmap on Twitter Follow gcmap on Google+ GCmap on LinkedIn

hCard Microformat

Geo Microformat